Aérodrome :
LOGIN :

S'inscrire | Disclaimer

   EN    FR    IT 

 










Légende :    VFR   VFR Marginal   IFR   IFR Intensif   IFR Très Intensif
Visi : 
Plafond : 
>= 8 km
>= 3000ft
5 à 8 km
1000 à 3000 ft
1500m à 5 km
500 à 1000 ft
800 à 1500m
200 à 500 ft
< 800m
< 200 ft
Symboles :   Orages  Brouillard  Fortes neiges  Fortes précipitations  Vent > 20 kt
SIGMETs :   Divers  Orages  Givrage  Turbulence  Onde Orograph.  Cendres Volcan.







- Altitude de l'aérodrome : 913 ft
- Voir les cartes d'approche


LFSX - Luxeuil

DERNIER METAR :
  • 221400Z AUTO 22006KT 9999 OVC016 M01/M04 Q1007

METARs EXPIRÉS :
  • 221330Z AUTO 20005KT 160V230 9999 OVC015 M00/M04 Q1007
  • 221300Z AUTO 18006KT 140V210 9999 OVC015 M01/M04 Q1008
  • 221230Z AUTO 20007KT 160V220 9999 OVC014 M01/M04 Q1008
  • 221200Z AUTO 20007KT 170V230 9999 OVC014 M01/M04 Q1009
  • 221130Z AUTO 19007KT 140V230 9999 OVC013 M01/M04 Q1010

TAF TAF LFSX
Valide du 22 à 09h jusqu'au 23 à 09h UTC


220800Z 2209/2309 VRB03KT 9999 OVC010
BECMG 2212/2215 SCT020
BECMG 2220/2222 BKN014
TEMPO 2222/2309 1000 SN BKN007
Pas de NOTAMs connus pour ce terrain.



MET'MAP, la Météo Aéronautique d'un coup d'oeil ! - Copyright ORBIFLY Décembre 2007 - Disclaimer

ORBIFLY MET'MAP TEAM :

Programmation & Développement : Alexandra Zaïnal
Conception & Développement : Baudouin d'Aumeries
Co-Programmation & Développement : Marc-Olivier Méhu
Soutien technique & logistique : Manuel Goepfert

Contact : metmap@orbifly.com




SOURCES & CREDITS :

   NOAA